Time;durP1;ratioP1;P1;durP2;ratioP2;P2;SDS_P1;SDS_P2;PMS_P1;PMS_P2;Temp;Humidity;BMP_temperature;BMP_pressure;BME280_temperature;BME280_humidity;BME280_pressure;Samples;Min_cycle;Max_cycle;Signal;HPM_P1;HPM_P2
2022/07/30 00:02:15;;;;;;;29.77;16.60;;;;;;;;;;5111522;28;20096;-69
2022/07/30 00:04:41;;;;;;;30.10;16.20;;;;;;;;;;5110206;28;20029;-69
2022/07/30 00:07:07;;;;;;;33.17;16.02;;;;;;;;;;5111472;28;20088;-69
2022/07/30 00:09:33;;;;;;;33.88;17.08;;;;;;;;;;5111361;28;20561;-69
2022/07/30 00:11:59;;;;;;;31.45;17.35;;;;;;;;;;5110401;28;20114;-69
2022/07/30 00:14:25;;;;;;;29.48;18.20;;;;;;;;;;5111552;28;20024;-69
2022/07/30 00:16:52;;;;;;;38.10;18.35;;;;;;;;;;5111332;28;20070;-69
2022/07/30 00:19:18;;;;;;;36.80;18.88;;;;;;;;;;5092502;28;20499;-69
2022/07/30 00:21:44;;;;;;;37.95;21.08;;;;;;;;;;5111144;28;20043;-69
2022/07/30 00:24:10;;;;;;;30.58;20.27;;;;;;;;;;5111039;28;20067;-69
2022/07/30 00:26:37;;;;;;;41.95;21.17;;;;;;;;;;5111405;28;20092;-69
2022/07/30 00:29:03;;;;;;;41.95;22.45;;;;;;;;;;5111003;28;20024;-69
2022/07/30 00:31:29;;;;;;;47.47;24.17;;;;;;;;;;5111600;28;20019;-69
2022/07/30 00:33:55;;;;;;;41.95;24.33;;;;;;;;;;5111191;28;20068;-69
2022/07/30 00:36:21;;;;;;;43.30;24.98;;;;;;;;;;5111314;28;20030;-69
2022/07/30 00:38:47;;;;;;;45.13;25.38;;;;;;;;;;5111174;28;20025;-70
2022/07/30 00:41:13;;;;;;;42.92;25.15;;;;;;;;;;5111174;28;20274;-70
2022/07/30 00:43:39;;;;;;;48.83;25.45;;;;;;;;;;5111810;28;20027;-69
2022/07/30 00:46:06;;;;;;;49.65;27.65;;;;;;;;;;5110732;28;20062;-69
2022/07/30 00:48:32;;;;;;;41.80;26.63;;;;;;;;;;5110810;28;20149;-69
2022/07/30 00:50:58;;;;;;;42.92;26.60;;;;;;;;;;5111012;28;20031;-69
2022/07/30 00:53:24;;;;;;;41.85;27.58;;;;;;;;;;5093322;28;20023;-69
2022/07/30 00:55:50;;;;;;;37.00;24.73;;;;;;;;;;5092723;28;20341;-69
2022/07/30 00:58:16;;;;;;;52.30;29.15;;;;;;;;;;5110552;28;20040;-69
2022/07/30 01:00:42;;;;;;;51.00;27.55;;;;;;;;;;5109674;28;20020;-69
2022/07/30 01:03:08;;;;;;;45.13;27.13;;;;;;;;;;5110413;28;20023;-69
2022/07/30 01:05:34;;;;;;;51.78;27.83;;;;;;;;;;5092370;28;20503;-69
2022/07/30 01:08:00;;;;;;;50.30;31.38;;;;;;;;;;5092065;28;20023;-69
2022/07/30 01:10:26;;;;;;;56.10;31.35;;;;;;;;;;5110349;28;20493;-69
2022/07/30 01:12:53;;;;;;;53.38;31.65;;;;;;;;;;5092408;28;20063;-69
2022/07/30 01:15:19;;;;;;;55.70;33.53;;;;;;;;;;5092298;28;20028;-69
2022/07/30 01:17:49;;;;;;;66.70;36.80;;;;;;;;;;5110588;28;20031;-69
2022/07/30 01:20:18;;;;;;;72.27;39.27;;;;;;;;;;5110378;28;20046;-69
2022/07/30 01:23:06;;;;;;;59.55;36.33;;;;;;;;;;5110383;28;20020;-69
2022/07/30 01:25:45;;;;;;;68.28;36.10;;;;;;;;;;5110486;28;20027;-69
2022/07/30 01:28:17;;;;;;;56.95;33.35;;;;;;;;;;5110679;28;20030;-68
2022/07/30 01:30:44;;;;;;;59.60;32.70;;;;;;;;;;5110362;28;20028;-70
2022/07/30 01:33:14;;;;;;;61.47;35.63;;;;;;;;;;5110349;28;20031;-69
2022/07/30 01:35:41;;;;;;;59.20;36.17;;;;;;;;;;5110279;28;20072;-69
2022/07/30 01:38:08;;;;;;;64.88;38.72;;;;;;;;;;5110306;28;20392;-68
2022/07/30 01:40:36;;;;;;;77.60;39.92;;;;;;;;;;5109990;28;20027;-69
2022/07/30 01:43:02;;;;;;;71.82;39.92;;;;;;;;;;5110102;28;20028;-69
2022/07/30 01:45:29;;;;;;;90.78;42.97;;;;;;;;;;5109769;28;20092;-69
2022/07/30 01:47:57;;;;;;;78.15;44.88;;;;;;;;;;5091795;28;20032;-68
2022/07/30 01:50:24;;;;;;;80.70;44.53;;;;;;;;;;5110213;28;20027;-69
2022/07/30 01:52:52;;;;;;;82.45;43.75;;;;;;;;;;5110412;28;20098;-70
2022/07/30 01:55:24;;;;;;;88.75;45.42;;;;;;;;;;5110604;28;20024;-70
2022/07/30 01:57:50;;;;;;;73.43;43.95;;;;;;;;;;5110540;28;20542;-69
2022/07/30 02:00:17;;;;;;;93.03;46.78;;;;;;;;;;5110285;28;20030;-69
2022/07/30 02:02:43;;;;;;;91.82;48.30;;;;;;;;;;5110365;28;20026;-70
2022/07/30 02:05:10;;;;;;;96.10;47.78;;;;;;;;;;5110278;28;20081;-68
2022/07/30 02:07:42;;;;;;;95.30;50.53;;;;;;;;;;5110210;28;20497;-68
2022/07/30 02:10:13;;;;;;;90.30;47.35;;;;;;;;;;5109946;28;20054;-68
2022/07/30 02:12:46;;;;;;;99.93;49.38;;;;;;;;;;5113366;28;20076;-68
2022/07/30 02:15:22;;;;;;;96.25;49.78;;;;;;;;;;5113901;28;20027;-69
2022/07/30 02:17:59;;;;;;;102.95;53.80;;;;;;;;;;5114581;28;20027;-68
2022/07/30 02:20:27;;;;;;;103.80;54.92;;;;;;;;;;5095550;28;20064;-69
2022/07/30 02:22:54;;;;;;;104.43;51.97;;;;;;;;;;5113587;28;20024;-69
2022/07/30 02:25:21;;;;;;;103.38;52.45;;;;;;;;;;5113614;28;20024;-68
2022/07/30 02:27:52;;;;;;;98.30;50.90;;;;;;;;;;5095349;28;20049;-69
2022/07/30 02:30:18;;;;;;;106.88;53.90;;;;;;;;;;5113013;28;20058;-70
2022/07/30 02:32:45;;;;;;;105.15;50.95;;;;;;;;;;5113364;28;20019;-68
2022/07/30 02:35:16;;;;;;;112.18;56.47;;;;;;;;;;5094966;28;20023;-69
2022/07/30 02:37:44;;;;;;;98.97;51.38;;;;;;;;;;5113469;28;20035;-69
2022/07/30 02:40:10;;;;;;;117.55;53.47;;;;;;;;;;5094616;28;20024;-69
2022/07/30 02:42:37;;;;;;;97.25;50.10;;;;;;;;;;5113018;28;20046;-69
2022/07/30 02:45:04;;;;;;;107.43;52.75;;;;;;;;;;5112783;28;20048;-69
2022/07/30 02:47:30;;;;;;;103.68;51.50;;;;;;;;;;5113544;28;20040;-69
2022/07/30 02:49:58;;;;;;;104.82;51.50;;;;;;;;;;5094760;28;20472;-69
2022/07/30 02:52:25;;;;;;;99.60;52.58;;;;;;;;;;5113081;28;20020;-69
2022/07/30 02:54:52;;;;;;;111.18;54.38;;;;;;;;;;5113059;28;20039;-69
2022/07/30 02:57:19;;;;;;;103.60;52.53;;;;;;;;;;5113064;28;20084;-69
2022/07/30 02:59:46;;;;;;;110.93;53.28;;;;;;;;;;5112576;28;20034;-68
2022/07/30 03:02:13;;;;;;;99.85;50.30;;;;;;;;;;5112800;28;20492;-68
2022/07/30 03:04:40;;;;;;;104.68;51.22;;;;;;;;;;5112711;28;20123;-68
2022/07/30 03:07:06;;;;;;;104.53;53.85;;;;;;;;;;5112510;28;20059;-68
2022/07/30 03:09:32;;;;;;;108.03;53.22;;;;;;;;;;5094224;28;20020;-68
2022/07/30 03:11:59;;;;;;;91.50;49.25;;;;;;;;;;5112772;28;20519;-69
2022/07/30 03:14:25;;;;;;;101.45;50.53;;;;;;;;;;5113042;28;20016;-69
2022/07/30 03:16:57;;;;;;;100.60;51.38;;;;;;;;;;5113051;28;20035;-69
2022/07/30 03:19:24;;;;;;;104.32;52.45;;;;;;;;;;5094559;28;20319;-69
2022/07/30 03:21:51;;;;;;;125.22;57.85;;;;;;;;;;5112932;28;20508;-70
2022/07/30 03:24:18;;;;;;;124.88;58.33;;;;;;;;;;5112370;28;20364;-69
2022/07/30 03:26:45;;;;;;;116.20;56.67;;;;;;;;;;5112757;28;20032;-69
2022/07/30 03:29:13;;;;;;;125.80;59.15;;;;;;;;;;5112380;28;20044;-69
2022/07/30 03:31:39;;;;;;;124.57;57.63;;;;;;;;;;5112714;28;20465;-69
2022/07/30 03:34:08;;;;;;;130.18;61.45;;;;;;;;;;5112501;28;20041;-70
2022/07/30 03:36:35;;;;;;;116.05;58.50;;;;;;;;;;5112709;28;20019;-70
2022/07/30 03:39:02;;;;;;;136.15;61.53;;;;;;;;;;5112208;28;20111;-70
2022/07/30 03:41:28;;;;;;;138.55;62.88;;;;;;;;;;5111867;28;20106;-69
2022/07/30 03:43:55;;;;;;;146.88;63.17;;;;;;;;;;5093809;28;20568;-69
2022/07/30 03:46:21;;;;;;;115.80;56.83;;;;;;;;;;5111797;28;20043;-69
2022/07/30 03:48:47;;;;;;;130.40;60.97;;;;;;;;;;5112245;28;20031;-69
2022/07/30 03:51:14;;;;;;;119.82;59.33;;;;;;;;;;5111510;28;20020;-68
2022/07/30 03:53:41;;;;;;;120.07;58.20;;;;;;;;;;5111771;28;20027;-68
2022/07/30 03:56:07;;;;;;;111.68;56.03;;;;;;;;;;5093401;28;20511;-68
2022/07/30 03:58:33;;;;;;;119.05;55.78;;;;;;;;;;5111742;28;20082;-68
2022/07/30 04:00:59;;;;;;;123.68;57.60;;;;;;;;;;5112054;28;20027;-69
2022/07/30 04:03:26;;;;;;;109.50;53.67;;;;;;;;;;5111879;28;20028;-68
2022/07/30 04:05:52;;;;;;;92.75;49.30;;;;;;;;;;5111577;28;20027;-68
2022/07/30 04:08:18;;;;;;;104.05;50.60;;;;;;;;;;5093333;28;20019;-67
2022/07/30 04:10:45;;;;;;;100.32;49.78;;;;;;;;;;5111163;28;20476;-68
2022/07/30 04:13:11;;;;;;;112.75;50.88;;;;;;;;;;5111472;28;20081;-68
2022/07/30 04:15:43;;;;;;;110.65;53.38;;;;;;;;;;5111509;28;20400;-69
2022/07/30 04:18:10;;;;;;;105.53;52.33;;;;;;;;;;5111374;28;20367;-68
2022/07/30 04:20:40;;;;;;;111.30;54.25;;;;;;;;;;5111151;28;20049;-68
2022/07/30 04:23:06;;;;;;;117.03;55.38;;;;;;;;;;5110852;28;20024;-69
2022/07/30 04:25:33;;;;;;;117.10;59.03;;;;;;;;;;5111093;28;20503;-69
2022/07/30 04:27:59;;;;;;;116.10;58.08;;;;;;;;;;5111725;28;20023;-68
2022/07/30 04:30:26;;;;;;;112.45;55.97;;;;;;;;;;5093316;28;20031;-69
2022/07/30 04:32:52;;;;;;;108.72;52.47;;;;;;;;;;5111576;28;20127;-69
2022/07/30 04:35:26;;;;;;;115.75;57.65;;;;;;;;;;5093219;28;20175;-69
2022/07/30 04:37:52;;;;;;;116.55;57.70;;;;;;;;;;5111333;28;20031;-69
2022/07/30 04:40:18;;;;;;;127.10;61.95;;;;;;;;;;5111287;28;20032;-69
2022/07/30 04:42:44;;;;;;;125.03;59.45;;;;;;;;;;5111324;28;20118;-69
2022/07/30 04:45:10;;;;;;;107.95;55.83;;;;;;;;;;5111087;28;20532;-68
2022/07/30 04:47:36;;;;;;;81.97;50.65;;;;;;;;;;5111321;28;20072;-69
2022/07/30 04:50:04;;;;;;;70.22;43.28;;;;;;;;;;5110466;28;20030;-69
2022/07/30 04:52:30;;;;;;;61.90;41.25;;;;;;;;;;5092637;28;20059;-68
2022/07/30 04:54:59;;;;;;;49.92;33.92;;;;;;;;;;5093022;28;20020;-68
2022/07/30 04:57:27;;;;;;;43.80;28.73;;;;;;;;;;5110687;28;20024;-68
2022/07/30 04:59:53;;;;;;;37.85;23.63;;;;;;;;;;5110808;28;20281;-68
2022/07/30 05:02:20;;;;;;;33.17;21.40;;;;;;;;;;5075998;28;20055;-68
2022/07/30 05:04:46;;;;;;;23.67;17.73;;;;;;;;;;5110364;28;20545;-69
2022/07/30 05:07:13;;;;;;;24.70;16.77;;;;;;;;;;5110316;28;20049;-69
2022/07/30 05:09:39;;;;;;;20.48;12.55;;;;;;;;;;5110653;28;20031;-68
2022/07/30 05:12:06;;;;;;;23.60;11.65;;;;;;;;;;5110341;28;20044;-68
2022/07/30 05:14:32;;;;;;;14.20;10.63;;;;;;;;;;5092631;28;20020;-69
2022/07/30 05:16:58;;;;;;;17.50;9.40;;;;;;;;;;5092685;28;20408;-69
2022/07/30 05:19:24;;;;;;;12.02;8.82;;;;;;;;;;5110165;28;20031;-69
2022/07/30 05:21:50;;;;;;;16.00;9.38;;;;;;;;;;5110590;28;20028;-69
2022/07/30 05:24:16;;;;;;;21.40;8.52;;;;;;;;;;5110306;28;20441;-70
2022/07/30 05:26:42;;;;;;;14.27;9.60;;;;;;;;;;5110478;28;20020;-68
2022/07/30 05:29:08;;;;;;;15.50;9.45;;;;;;;;;;5110292;28;20034;-69
2022/07/30 05:31:35;;;;;;;15.48;8.88;;;;;;;;;;5110210;28;20027;-69
2022/07/30 05:34:01;;;;;;;17.60;9.95;;;;;;;;;;5109941;28;20035;-69
2022/07/30 05:36:27;;;;;;;16.58;9.77;;;;;;;;;;5110642;28;20024;-69
2022/07/30 05:38:53;;;;;;;15.00;10.05;;;;;;;;;;5110722;28;20096;-67
2022/07/30 05:41:19;;;;;;;14.95;9.80;;;;;;;;;;5110394;28;20020;-69
2022/07/30 05:43:45;;;;;;;11.32;7.85;;;;;;;;;;5110602;28;20035;-69
2022/07/30 05:46:11;;;;;;;14.57;7.35;;;;;;;;;;5092873;28;20181;-69
2022/07/30 05:48:37;;;;;;;17.95;7.70;;;;;;;;;;5096566;28;20030;-68
2022/07/30 05:51:04;;;;;;;10.38;7.00;;;;;;;;;;5113099;27;20483;-70
2022/07/30 05:53:30;;;;;;;13.07;6.90;;;;;;;;;;5114912;28;20097;-69
2022/07/30 05:55:57;;;;;;;14.52;6.63;;;;;;;;;;5114559;28;20030;-69
2022/07/30 05:58:23;;;;;;;11.25;5.90;;;;;;;;;;5114983;28;20161;-69
2022/07/30 06:00:49;;;;;;;12.25;5.97;;;;;;;;;;5114242;28;20024;-69
2022/07/30 06:03:15;;;;;;;11.68;5.75;;;;;;;;;;5114291;28;20108;-69
2022/07/30 06:05:41;;;;;;;9.75;5.57;;;;;;;;;;5114397;28;20023;-70
2022/07/30 06:08:07;;;;;;;10.00;5.35;;;;;;;;;;5095829;28;20104;-70
2022/07/30 06:10:33;;;;;;;12.55;5.53;;;;;;;;;;5113816;28;20027;-69
2022/07/30 06:12:59;;;;;;;11.05;5.07;;;;;;;;;;5095580;28;20028;-69
2022/07/30 06:15:26;;;;;;;7.82;5.05;;;;;;;;;;5113744;28;20125;-69
2022/07/30 06:17:52;;;;;;;11.13;5.63;;;;;;;;;;5113721;28;20043;-68
2022/07/30 06:20:19;;;;;;;9.60;4.95;;;;;;;;;;5095059;28;20027;-68
2022/07/30 06:22:45;;;;;;;10.52;5.30;;;;;;;;;;5113896;28;20039;-68
2022/07/30 06:25:11;;;;;;;11.68;5.75;;;;;;;;;;5113906;28;20095;-69
2022/07/30 06:27:38;;;;;;;9.95;5.63;;;;;;;;;;5113713;28;20075;-69
2022/07/30 06:30:05;;;;;;;11.32;5.30;;;;;;;;;;5094911;28;20016;-69
2022/07/30 06:32:31;;;;;;;12.38;5.18;;;;;;;;;;5113666;28;20652;-69
2022/07/30 06:34:57;;;;;;;9.32;4.80;;;;;;;;;;5113416;28;20042;-69
2022/07/30 06:37:23;;;;;;;8.63;4.95;;;;;;;;;;5113335;28;20124;-69
2022/07/30 06:39:49;;;;;;;10.13;4.85;;;;;;;;;;5113507;28;20024;-69
2022/07/30 06:42:15;;;;;;;8.48;4.30;;;;;;;;;;5094892;28;20487;-70
2022/07/30 06:44:41;;;;;;;7.60;3.88;;;;;;;;;;5113415;28;20035;-70
2022/07/30 06:47:07;;;;;;;8.82;4.07;;;;;;;;;;5113112;28;20058;-70
2022/07/30 06:49:34;;;;;;;11.82;3.72;;;;;;;;;;5112948;28;20035;-70
2022/07/30 06:52:00;;;;;;;9.65;4.00;;;;;;;;;;5113212;28;20020;-69
2022/07/30 06:54:26;;;;;;;8.20;3.33;;;;;;;;;;5113814;28;20032;-69
2022/07/30 06:56:52;;;;;;;9.27;3.80;;;;;;;;;;5095052;28;20192;-69
2022/07/30 06:59:18;;;;;;;10.07;3.45;;;;;;;;;;5111887;28;20274;-69
2022/07/30 07:01:44;;;;;;;7.72;3.20;;;;;;;;;;5113225;28;20497;-69
2022/07/30 07:04:10;;;;;;;7.20;2.97;;;;;;;;;;5113290;28;20031;-69
2022/07/30 07:06:36;;;;;;;13.10;3.63;;;;;;;;;;5113115;28;20027;-69
2022/07/30 07:09:03;;;;;;;9.60;3.20;;;;;;;;;;5113193;28;20059;-69
2022/07/30 07:11:29;;;;;;;7.55;2.70;;;;;;;;;;5113172;28;20489;-69
2022/07/30 07:13:55;;;;;;;7.45;2.60;;;;;;;;;;5112637;28;20420;-70
2022/07/30 07:16:24;;;;;;;7.95;2.72;;;;;;;;;;5113061;28;20035;-69
2022/07/30 07:18:51;;;;;;;8.77;3.05;;;;;;;;;;5112855;28;20515;-69
2022/07/30 07:21:17;;;;;;;11.15;3.08;;;;;;;;;;5112348;28;20039;-69
2022/07/30 07:23:43;;;;;;;9.75;2.55;;;;;;;;;;5112335;28;20099;-69
2022/07/30 07:26:09;;;;;;;9.75;2.90;;;;;;;;;;5112280;28;20055;-69
2022/07/30 07:28:35;;;;;;;9.43;3.08;;;;;;;;;;5112350;28;20024;-69
2022/07/30 07:31:02;;;;;;;8.57;3.05;;;;;;;;;;5093909;28;20352;-67
2022/07/30 07:33:28;;;;;;;8.07;3.00;;;;;;;;;;5094140;28;20016;-69
2022/07/30 07:35:54;;;;;;;7.30;2.83;;;;;;;;;;5112153;28;20111;-68
2022/07/30 07:38:20;;;;;;;14.63;3.60;;;;;;;;;;5112193;28;20337;-69
2022/07/30 07:40:46;;;;;;;7.15;3.20;;;;;;;;;;5110802;28;20028;-69
2022/07/30 07:43:13;;;;;;;9.30;3.17;;;;;;;;;;5112631;28;20038;-69
2022/07/30 07:45:40;;;;;;;8.77;3.83;;;;;;;;;;5112032;28;20051;-69
2022/07/30 07:48:06;;;;;;;14.13;4.20;;;;;;;;;;5111764;28;20503;-68
2022/07/30 07:50:32;;;;;;;11.30;4.22;;;;;;;;;;5111634;28;20034;-68
2022/07/30 07:52:58;;;;;;;9.15;3.67;;;;;;;;;;5112061;28;20029;-68
2022/07/30 07:55:24;;;;;;;6.85;3.70;;;;;;;;;;5111730;28;20499;-71
2022/07/30 07:57:50;;;;;;;7.40;3.70;;;;;;;;;;5112044;28;20123;-70
2022/07/30 08:00:17;;;;;;;9.35;3.58;;;;;;;;;;5111923;28;20098;-70
2022/07/30 08:02:43;;;;;;;8.38;3.60;;;;;;;;;;5093837;28;20036;-70
2022/07/30 08:05:11;;;;;;;8.35;3.65;;;;;;;;;;5093407;28;20039;-69
2022/07/30 08:07:38;;;;;;;9.00;3.60;;;;;;;;;;5111750;28;20050;-70
2022/07/30 08:10:04;;;;;;;8.23;3.53;;;;;;;;;;5111130;28;20489;-69
2022/07/30 08:12:30;;;;;;;6.97;2.85;;;;;;;;;;5111803;28;20506;-69
2022/07/30 08:14:56;;;;;;;6.15;2.90;;;;;;;;;;5111936;28;20028;-69
2022/07/30 08:17:23;;;;;;;7.95;2.78;;;;;;;;;;5112111;28;20031;-69
2022/07/30 08:19:49;;;;;;;5.90;2.63;;;;;;;;;;5111630;28;20039;-69
2022/07/30 08:22:15;;;;;;;6.28;2.50;;;;;;;;;;5111572;28;20053;-70
2022/07/30 08:24:42;;;;;;;6.75;2.70;;;;;;;;;;5111604;28;20027;-69
2022/07/30 08:27:08;;;;;;;6.70;2.38;;;;;;;;;;5111729;28;20082;-69
2022/07/30 08:29:34;;;;;;;7.32;3.20;;;;;;;;;;5111896;28;20031;-69
2022/07/30 08:32:00;;;;;;;4.97;2.50;;;;;;;;;;5093403;28;20030;-69
2022/07/30 08:34:27;;;;;;;7.22;2.60;;;;;;;;;;5111960;28;20019;-69
2022/07/30 08:36:53;;;;;;;5.75;2.40;;;;;;;;;;5110996;28;20043;-70
2022/07/30 08:39:19;;;;;;;7.78;2.88;;;;;;;;;;5110918;28;20134;-73
2022/07/30 08:41:45;;;;;;;6.60;2.67;;;;;;;;;;5111141;28;20039;-69
2022/07/30 08:44:11;;;;;;;5.65;2.53;;;;;;;;;;5110872;28;20031;-69
2022/07/30 08:46:41;;;;;;;9.70;2.63;;;;;;;;;;5110719;28;20530;-70
2022/07/30 08:49:07;;;;;;;5.60;2.58;;;;;;;;;;5111199;28;20050;-70
2022/07/30 08:51:35;;;;;;;6.40;2.35;;;;;;;;;;5110482;28;20039;-70
2022/07/30 08:54:03;;;;;;;7.43;3.28;;;;;;;;;;5110555;28;20023;-70
2022/07/30 08:56:29;;;;;;;7.00;2.63;;;;;;;;;;5111017;28;20024;-69
2022/07/30 08:58:55;;;;;;;5.32;2.38;;;;;;;;;;5111019;28;20034;-68
2022/07/30 09:01:21;;;;;;;9.02;2.80;;;;;;;;;;5110642;28;20323;-70
2022/07/30 09:03:47;;;;;;;6.38;2.55;;;;;;;;;;5110892;28;20032;-69
2022/07/30 09:06:14;;;;;;;6.38;2.42;;;;;;;;;;5110619;28;20503;-69
2022/07/30 09:08:40;;;;;;;7.68;2.58;;;;;;;;;;5110639;28;20465;-70
2022/07/30 09:11:07;;;;;;;7.93;2.47;;;;;;;;;;5092533;28;20016;-70
2022/07/30 09:13:34;;;;;;;5.57;2.22;;;;;;;;;;5110794;28;20038;-68
2022/07/30 09:16:01;;;;;;;10.45;2.20;;;;;;;;;;5110702;28;20548;-70
2022/07/30 09:18:43;;;;;;;6.18;2.30;;;;;;;;;;5111172;28;20032;-69
2022/07/30 09:21:16;;;;;;;5.30;2.30;;;;;;;;;;5109626;28;20512;-70
2022/07/30 09:24:01;;;;;;;5.20;2.50;;;;;;;;;;5110611;28;20034;-70
2022/07/30 09:26:28;;;;;;;6.60;2.38;;;;;;;;;;5110620;28;20074;-70
2022/07/30 09:28:54;;;;;;;6.80;3.33;;;;;;;;;;5110966;28;20012;-70
2022/07/30 09:31:21;;;;;;;5.72;2.50;;;;;;;;;;5092595;28;20504;-69
2022/07/30 09:33:47;;;;;;;7.57;2.72;;;;;;;;;;5110632;28;20031;-69
2022/07/30 09:36:17;;;;;;;4.85;2.42;;;;;;;;;;5110890;28;20027;-70
2022/07/30 09:38:47;;;;;;;9.60;2.40;;;;;;;;;;5110969;28;20031;-70
2022/07/30 09:41:14;;;;;;;4.97;2.50;;;;;;;;;;5110684;28;20034;-69
2022/07/30 09:43:43;;;;;;;5.88;2.38;;;;;;;;;;5111120;28;20030;-68
2022/07/30 09:46:09;;;;;;;11.02;2.70;;;;;;;;;;5110219;28;20059;-69
2022/07/30 09:48:35;;;;;;;10.27;2.63;;;;;;;;;;5111107;28;20084;-68
2022/07/30 09:51:01;;;;;;;4.68;2.00;;;;;;;;;;5110445;28;20032;-69
2022/07/30 09:53:27;;;;;;;6.50;2.63;;;;;;;;;;5110425;28;20028;-69
2022/07/30 09:55:55;;;;;;;9.80;2.40;;;;;;;;;;5110880;28;20073;-69
2022/07/30 09:58:21;;;;;;;7.85;2.38;;;;;;;;;;5110231;28;20110;-68
2022/07/30 10:00:47;;;;;;;8.00;2.30;;;;;;;;;;5110220;28;20108;-69
2022/07/30 10:03:24;;;;;;;6.15;1.88;;;;;;;;;;5109944;28;20016;-69
2022/07/30 10:05:51;;;;;;;9.02;2.13;;;;;;;;;;5109715;28;20059;-69
2022/07/30 10:08:17;;;;;;;6.05;1.77;;;;;;;;;;5109875;28;20019;-69
2022/07/30 10:10:43;;;;;;;6.75;1.77;;;;;;;;;;5110008;28;20055;-70
2022/07/30 10:13:10;;;;;;;5.63;2.03;;;;;;;;;;5109712;28;20077;-67
2022/07/30 10:15:37;;;;;;;11.13;2.17;;;;;;;;;;5110028;28;20382;-69
2022/07/30 10:18:04;;;;;;;5.30;2.00;;;;;;;;;;5109930;28;20032;-68
2022/07/30 10:20:30;;;;;;;4.85;2.30;;;;;;;;;;5109945;28;20103;-69
2022/07/30 10:22:57;;;;;;;7.75;2.45;;;;;;;;;;5110021;28;20019;-69
2022/07/30 10:25:30;;;;;;;6.97;2.30;;;;;;;;;;5110433;28;20568;-69
2022/07/30 10:27:56;;;;;;;5.45;1.60;;;;;;;;;;5110215;28;20028;-69
2022/07/30 10:30:23;;;;;;;5.18;1.80;;;;;;;;;;5109911;28;20118;-68
2022/07/30 10:32:49;;;;;;;5.43;1.60;;;;;;;;;;5092998;28;20042;-70
2022/07/30 10:35:15;;;;;;;3.88;1.70;;;;;;;;;;5113604;28;20028;-68
2022/07/30 10:37:44;;;;;;;6.50;1.80;;;;;;;;;;5095376;28;20042;-69
2022/07/30 10:40:24;;;;;;;4.25;1.35;;;;;;;;;;5113017;28;20024;-68
2022/07/30 10:43:02;;;;;;;3.50;1.70;;;;;;;;;;5113342;28;20331;-69
2022/07/30 10:45:48;;;;;;;4.07;1.40;;;;;;;;;;5113997;28;20082;-69
2022/07/30 10:48:15;;;;;;;4.75;1.67;;;;;;;;;;5099213;28;20050;-70
2022/07/30 10:50:55;;;;;;;5.35;1.70;;;;;;;;;;5095327;28;20354;-70
2022/07/30 10:53:44;;;;;;;6.70;1.50;;;;;;;;;;5113704;28;20024;-68
2022/07/30 10:56:13;;;;;;;5.13;1.30;;;;;;;;;;5113496;28;20028;-69
2022/07/30 10:58:58;;;;;;;5.93;1.83;;;;;;;;;;5113496;28;20031;-70
2022/07/30 11:01:24;;;;;;;3.92;1.60;;;;;;;;;;5113420;28;20117;-68
2022/07/30 11:04:09;;;;;;;4.68;1.40;;;;;;;;;;5113425;28;20047;-69
2022/07/30 11:06:35;;;;;;;4.00;1.80;;;;;;;;;;5113150;28;20464;-69
2022/07/30 11:09:02;;;;;;;4.07;1.20;;;;;;;;;;5094591;28;20536;-69
2022/07/30 11:11:31;;;;;;;5.97;2.20;;;;;;;;;;5112835;28;20027;-69
2022/07/30 11:13:58;;;;;;;4.18;1.60;;;;;;;;;;5112686;28;20020;-69
2022/07/30 11:16:33;;;;;;;3.90;1.63;;;;;;;;;;5093995;28;20031;-69
2022/07/30 11:19:02;;;;;;;4.55;1.40;;;;;;;;;;5112745;28;20428;-69
2022/07/30 11:21:29;;;;;;;2.20;1.30;;;;;;;;;;5112762;28;20027;-68
2022/07/30 11:23:55;;;;;;;6.88;1.95;;;;;;;;;;5111962;28;20061;-68
2022/07/30 11:26:40;;;;;;;4.53;1.42;;;;;;;;;;5112272;28;20028;-68
2022/07/30 11:29:07;;;;;;;4.63;1.58;;;;;;;;;;5112124;28;20015;-69
2022/07/30 11:31:34;;;;;;;8.32;1.92;;;;;;;;;;5112613;28;20476;-68
2022/07/30 11:34:18;;;;;;;6.43;1.80;;;;;;;;;;5111590;28;20016;-69
2022/07/30 11:37:03;;;;;;;10.38;1.63;;;;;;;;;;5112066;28;20085;-68
2022/07/30 11:39:47;;;;;;;5.78;1.80;;;;;;;;;;5112300;28;20028;-68
2022/07/30 11:42:29;;;;;;;5.85;1.70;;;;;;;;;;5093570;28;20085;-69
2022/07/30 11:45:14;;;;;;;6.43;1.63;;;;;;;;;;5110810;28;20527;-70
2022/07/30 11:47:41;;;;;;;5.07;1.60;;;;;;;;;;5111615;28;20024;-69
2022/07/30 11:50:07;;;;;;;4.28;1.17;;;;;;;;;;5112283;28;20040;-69
2022/07/30 11:52:33;;;;;;;8.70;1.65;;;;;;;;;;5093856;28;20103;-69
2022/07/30 11:54:59;;;;;;;6.60;1.45;;;;;;;;;;5093866;28;20077;-69
2022/07/30 11:57:41;;;;;;;3.40;1.30;;;;;;;;;;5112273;28;20032;-69
2022/07/30 12:00:07;;;;;;;7.75;1.80;;;;;;;;;;5112402;28;20077;-68
2022/07/30 12:02:33;;;;;;;3.95;1.42;;;;;;;;;;5112215;28;20347;-69
2022/07/30 12:04:59;;;;;;;5.93;1.42;;;;;;;;;;5112113;28;20038;-70
2022/07/30 12:07:25;;;;;;;5.43;1.60;;;;;;;;;;5112267;28;20032;-68
2022/07/30 12:09:51;;;;;;;5.10;1.65;;;;;;;;;;5112073;28;20065;-69
2022/07/30 12:12:24;;;;;;;4.25;1.50;;;;;;;;;;5112154;28;20027;-69
2022/07/30 12:14:50;;;;;;;7.97;1.88;;;;;;;;;;5111813;28;20321;-69
2022/07/30 12:17:16;;;;;;;5.15;1.70;;;;;;;;;;5112288;28;20136;-68
2022/07/30 12:19:44;;;;;;;7.15;1.80;;;;;;;;;;5093756;28;20524;-68
2022/07/30 12:22:10;;;;;;;3.20;1.38;;;;;;;;;;5112003;28;20030;-69
2022/07/30 12:24:36;;;;;;;3.67;1.70;;;;;;;;;;5111579;28;20031;-70
2022/07/30 12:27:06;;;;;;;5.57;1.65;;;;;;;;;;5111960;28;20036;-69
2022/07/30 12:29:35;;;;;;;10.98;2.03;;;;;;;;;;5111799;28;20019;-70
2022/07/30 12:32:01;;;;;;;5.85;2.00;;;;;;;;;;5093042;28;20034;-70
2022/07/30 12:34:28;;;;;;;10.38;2.33;;;;;;;;;;5111109;28;20020;-69
2022/07/30 12:36:54;;;;;;;10.02;1.70;;;;;;;;;;5092595;28;20558;-70
2022/07/30 12:39:20;;;;;;;6.65;1.63;;;;;;;;;;5111301;28;20387;-70
2022/07/30 12:41:47;;;;;;;18.38;2.20;;;;;;;;;;5111439;28;20028;-69
2022/07/30 12:44:32;;;;;;;5.22;1.77;;;;;;;;;;5110531;28;20028;-68
2022/07/30 12:46:58;;;;;;;6.20;2.10;;;;;;;;;;5110856;28;20684;-69
2022/07/30 12:49:28;;;;;;;7.43;2.00;;;;;;;;;;5110583;28;20500;-69
2022/07/30 12:51:54;;;;;;;10.98;1.60;;;;;;;;;;5110841;28;20011;-69
2022/07/30 12:54:21;;;;;;;7.90;1.90;;;;;;;;;;5110833;28;20069;-69
2022/07/30 12:57:00;;;;;;;6.85;2.17;;;;;;;;;;5110786;28;20074;-69
2022/07/30 12:59:27;;;;;;;7.27;2.10;;;;;;;;;;5111055;28;20024;-69
2022/07/30 13:01:54;;;;;;;6.57;2.42;;;;;;;;;;5110635;28;20068;-68
2022/07/30 13:04:20;;;;;;;9.32;1.98;;;;;;;;;;5110617;28;20054;-69
2022/07/30 13:07:07;;;;;;;10.93;2.78;;;;;;;;;;5110767;28;20027;-69
2022/07/30 13:09:33;;;;;;;11.15;1.90;;;;;;;;;;5110488;28;20047;-69
2022/07/30 13:11:59;;;;;;;5.80;1.80;;;;;;;;;;5110697;28;20051;-69
2022/07/30 13:14:25;;;;;;;4.57;1.85;;;;;;;;;;5092637;28;20024;-69
2022/07/30 13:16:54;;;;;;;9.85;2.25;;;;;;;;;;5110947;28;20480;-70
2022/07/30 13:19:20;;;;;;;7.47;2.10;;;;;;;;;;5111133;28;20020;-69
2022/07/30 13:21:47;;;;;;;6.07;2.17;;;;;;;;;;5111014;28;20031;-69
2022/07/30 13:24:13;;;;;;;9.32;2.22;;;;;;;;;;5110411;28;20028;-69
2022/07/30 13:26:39;;;;;;;7.05;2.35;;;;;;;;;;5110736;28;20563;-69
2022/07/30 13:29:05;;;;;;;7.63;1.70;;;;;;;;;;5110412;28;20116;-69
2022/07/30 13:31:31;;;;;;;8.13;1.60;;;;;;;;;;5110871;28;20496;-69
2022/07/30 13:33:57;;;;;;;7.57;1.90;;;;;;;;;;5110488;28;20027;-68
2022/07/30 13:36:23;;;;;;;9.15;1.90;;;;;;;;;;5110907;28;20058;-68
2022/07/30 13:38:49;;;;;;;4.05;1.48;;;;;;;;;;5111007;28;20115;-69
2022/07/30 13:41:17;;;;;;;9.57;1.75;;;;;;;;;;5092535;28;20484;-69
2022/07/30 13:43:43;;;;;;;7.32;2.28;;;;;;;;;;5110253;28;20126;-68
2022/07/30 13:46:09;;;;;;;8.07;1.92;;;;;;;;;;5109754;28;20459;-68
2022/07/30 13:48:35;;;;;;;5.88;1.80;;;;;;;;;;5110185;28;20028;-68
2022/07/30 13:51:02;;;;;;;4.95;1.90;;;;;;;;;;5110209;28;20107;-69
2022/07/30 13:53:29;;;;;;;9.07;2.03;;;;;;;;;;5110493;28;20073;-68
2022/07/30 13:55:55;;;;;;;7.30;2.00;;;;;;;;;;5110027;28;20026;-69
2022/07/30 13:58:22;;;;;;;25.20;2.70;;;;;;;;;;5110326;28;20020;-69
2022/07/30 14:00:48;;;;;;;6.28;1.95;;;;;;;;;;5110122;28;20047;-69
2022/07/30 14:03:14;;;;;;;6.47;2.00;;;;;;;;;;5110196;28;20477;-69
2022/07/30 14:05:40;;;;;;;8.10;2.25;;;;;;;;;;5092161;28;20023;-69
2022/07/30 14:08:07;;;;;;;8.48;1.63;;;;;;;;;;5112427;28;20016;-69
2022/07/30 14:10:34;;;;;;;11.95;1.92;;;;;;;;;;5114156;28;20031;-69
2022/07/30 14:13:00;;;;;;;11.27;2.20;;;;;;;;;;5096283;28;20035;-69
2022/07/30 14:15:30;;;;;;;7.22;1.80;;;;;;;;;;5113925;28;20396;-69
2022/07/30 14:17:56;;;;;;;6.95;2.05;;;;;;;;;;5114080;28;20051;-69
2022/07/30 14:20:23;;;;;;;6.53;2.20;;;;;;;;;;5113569;28;20485;-68
2022/07/30 14:22:49;;;;;;;9.05;2.42;;;;;;;;;;5113653;28;20050;-68
2022/07/30 14:25:15;;;;;;;16.40;2.58;;;;;;;;;;5113649;28;20031;-69
2022/07/30 14:27:41;;;;;;;14.18;2.03;;;;;;;;;;5113999;28;20028;-68
2022/07/30 14:30:08;;;;;;;10.48;2.15;;;;;;;;;;5113987;28;20027;-68
2022/07/30 14:32:35;;;;;;;5.82;1.90;;;;;;;;;;5113938;28;20540;-70